Time;durP1;ratioP1;P1;durP2;ratioP2;P2;SDS_P1;SDS_P2;PMS_P1;PMS_P2;Temp;Humidity;BMP_temperature;BMP_pressure;BME280_temperature;BME280_humidity;BME280_pressure;Samples;Min_cycle;Max_cycle;Signal;HPM_P1;HPM_P2
2022/04/27 00:00:25;;;;;;;8.15;5.15;;;;;;;6.12;68.44;102325.06;5016677;28;20037;-81
2022/04/27 00:02:51;;;;;;;8.15;5.32;;;;;;;6.03;66.96;102321.41;5013869;28;20037;-81
2022/04/27 00:05:18;;;;;;;12.05;5.60;;;;;;;5.98;67.28;102322.13;5031889;28;20032;-81
2022/04/27 00:07:43;;;;;;;8.85;5.55;;;;;;;5.96;68.42;102323.84;4997667;28;20141;-81
2022/04/27 00:10:09;;;;;;;16.77;6.78;;;;;;;5.91;69.29;102317.56;5031646;28;20123;-81
2022/04/27 00:12:35;;;;;;;14.93;6.43;;;;;;;5.86;68.55;102316.56;5032004;28;20060;-81
2022/04/27 00:15:01;;;;;;;11.70;6.38;;;;;;;5.84;70.48;102319.19;5017146;28;20021;-80
2022/04/27 00:17:26;;;;;;;13.27;6.90;;;;;;;5.79;70.51;102315.59;5051012;28;20400;-81
2022/04/27 00:19:52;;;;;;;11.98;7.07;;;;;;;5.76;69.74;102319.03;5033657;28;20076;-81
2022/04/27 00:22:17;;;;;;;15.15;7.13;;;;;;;5.73;70.66;102312.81;5033768;28;20485;-81
2022/04/27 00:24:43;;;;;;;14.73;6.72;;;;;;;5.68;69.67;102314.44;5017164;28;20132;-81
2022/04/27 00:27:09;;;;;;;13.10;6.88;;;;;;;5.63;69.18;102310.84;5014050;28;20522;-81
2022/04/27 00:29:34;;;;;;;14.50;6.85;;;;;;;5.60;69.41;102314.28;4997303;28;20143;-81
2022/04/27 00:32:00;;;;;;;10.43;7.10;;;;;;;5.54;70.78;102314.16;5013511;28;20158;-81
2022/04/27 00:34:28;;;;;;;14.32;8.23;;;;;;;5.51;70.97;102322.81;5013633;28;20525;-80
2022/04/27 00:36:54;;;;;;;10.65;6.63;;;;;;;5.47;70.72;102318.38;5031327;28;20133;-81
2022/04/27 00:39:19;;;;;;;18.60;7.45;;;;;;;5.44;70.69;102314.78;5031156;28;20518;-81
2022/04/27 00:42:00;;;;;;;14.65;6.93;;;;;;;5.42;70.62;102322.66;5030112;28;20442;-81
2022/04/27 00:44:31;;;;;;;12.27;6.95;;;;;;;5.40;71.79;102326.97;5013338;28;20087;-81
2022/04/27 00:46:57;;;;;;;15.30;7.40;;;;;;;5.36;71.82;102322.50;5030085;28;20079;-81
2022/04/27 00:49:22;;;;;;;12.80;6.68;;;;;;;5.33;70.59;102325.06;5013394;28;20536;-81
2022/04/27 00:51:49;;;;;;;12.68;6.88;;;;;;;5.31;72.12;102318.88;5031346;28;20072;-81
2022/04/27 00:54:22;;;;;;;10.00;6.93;;;;;;;5.26;70.74;102325.75;5012681;28;20034;-81
2022/04/27 00:56:49;;;;;;;11.23;6.70;;;;;;;5.25;70.56;102329.25;5039194;28;20373;-81
2022/04/27 00:59:15;;;;;;;13.65;6.68;;;;;;;5.23;73.01;102329.19;5016391;28;20033;-81
2022/04/27 01:01:40;;;;;;;9.88;6.57;;;;;;;5.20;72.00;102329.13;5029596;28;20064;-80
2022/04/27 01:04:07;;;;;;;10.32;6.80;;;;;;;5.20;72.50;102342.25;5013056;28;20107;-81
2022/04/27 01:06:42;;;;;;;12.25;6.90;;;;;;;5.17;72.23;102335.19;5031109;28;20037;-81
2022/04/27 01:09:09;;;;;;;11.73;6.72;;;;;;;5.13;72.84;102343.84;4996697;28;20033;-81
2022/04/27 01:11:35;;;;;;;10.77;6.55;;;;;;;5.11;74.04;102344.66;5031042;28;20107;-81
2022/04/27 01:14:02;;;;;;;15.77;7.05;;;;;;;5.08;74.26;102350.72;5025986;28;20033;-80
2022/04/27 01:16:28;;;;;;;12.48;7.05;;;;;;;5.08;74.04;102348.09;5016480;28;20032;-80
2022/04/27 01:18:53;;;;;;;10.55;6.03;;;;;;;5.08;73.27;102353.34;5050876;28;20043;-80
2022/04/27 01:21:20;;;;;;;12.88;6.28;;;;;;;5.05;73.63;102352.41;5000363;28;20032;-80
2022/04/27 01:24:00;;;;;;;9.95;6.75;;;;;;;5.04;73.45;102353.22;5012808;28;20049;-80
2022/04/27 01:26:25;;;;;;;10.52;6.95;;;;;;;4.99;72.90;102345.22;4980838;28;20400;-80
2022/04/27 01:28:51;;;;;;;12.60;6.65;;;;;;;4.95;72.08;102354.78;5014083;28;20450;-80
2022/04/27 01:31:17;;;;;;;12.02;6.85;;;;;;;4.92;73.31;102348.53;5016710;28;20068;-80
2022/04/27 01:33:47;;;;;;;16.42;7.30;;;;;;;4.87;72.86;102351.06;5000192;28;20041;-80
2022/04/27 01:36:13;;;;;;;8.93;5.85;;;;;;;4.82;72.59;102352.69;5000540;28;20064;-80
2022/04/27 01:38:41;;;;;;;12.77;7.43;;;;;;;4.80;74.67;102350.84;5016706;28;20030;-80
2022/04/27 01:41:06;;;;;;;14.93;7.95;;;;;;;4.77;74.28;102346.41;5016732;28;20056;-80
2022/04/27 01:43:33;;;;;;;11.52;7.25;;;;;;;4.75;74.07;102356.00;4983841;28;20056;-80
2022/04/27 01:46:00;;;;;;;11.85;7.22;;;;;;;4.70;73.70;102349.75;5000147;28;20048;-80
2022/04/27 01:48:26;;;;;;;10.13;6.78;;;;;;;4.66;72.48;102350.50;5000120;28;20036;-80
2022/04/27 01:50:52;;;;;;;11.38;7.00;;;;;;;4.60;75.37;102350.31;4999950;28;20041;-80
2022/04/27 01:56:03;;;;;;;14.15;7.28;;;;;;;4.51;74.48;102351.88;5020515;28;20044;-80
2022/04/27 01:58:34;;;;;;;13.35;7.43;;;;;;;4.48;76.27;102357.03;4988920;28;20303;-81
2022/04/27 02:01:03;;;;;;;13.48;7.90;;;;;;;4.43;76.79;102363.00;5032520;28;20031;-80
2022/04/27 02:03:29;;;;;;;12.18;7.22;;;;;;;4.35;76.73;102362.75;5016289;28;20037;-80
2022/04/27 02:05:56;;;;;;;15.13;7.18;;;;;;;4.28;76.49;102359.09;5016286;28;20037;-80
2022/04/27 02:08:23;;;;;;;13.75;7.32;;;;;;;4.25;75.22;102360.72;5016379;28;20464;-80
2022/04/27 02:10:49;;;;;;;10.25;7.65;;;;;;;4.23;74.86;102360.72;5016215;28;20029;-80
2022/04/27 02:13:14;;;;;;;10.68;7.07;;;;;;;4.18;75.92;102361.41;5022388;28;20078;-80
2022/04/27 02:15:40;;;;;;;12.98;7.95;;;;;;;4.16;77.51;102369.25;5036062;28;20040;-80
2022/04/27 02:18:25;;;;;;;12.35;7.45;;;;;;;4.11;76.71;102370.84;5021754;28;20036;-80
2022/04/27 02:20:50;;;;;;;11.63;7.25;;;;;;;4.10;76.26;102374.28;5035706;28;20587;-80
2022/04/27 02:23:19;;;;;;;12.05;7.65;;;;;;;4.06;76.08;102362.84;5031024;28;20033;-80
2022/04/27 02:25:47;;;;;;;13.68;7.40;;;;;;;4.07;76.34;102372.47;5015812;28;20042;-80
2022/04/27 02:28:12;;;;;;;12.55;7.45;;;;;;;4.11;77.20;102373.47;5000026;28;20037;-80
2022/04/27 02:30:40;;;;;;;12.38;7.60;;;;;;;4.11;78.40;102375.22;5033321;28;20370;-80
2022/04/27 02:33:06;;;;;;;14.98;7.95;;;;;;;4.17;77.51;102384.13;5032168;28;20030;-80
2022/04/27 02:35:32;;;;;;;11.50;8.07;;;;;;;4.19;77.00;102382.44;5032095;28;20048;-80
2022/04/27 02:37:57;;;;;;;15.45;7.65;;;;;;;4.22;77.45;102385.13;5032005;28;20029;-80
2022/04/27 02:40:23;;;;;;;11.35;7.15;;;;;;;4.18;76.46;102383.28;5031456;28;20485;-80
2022/04/27 02:42:52;;;;;;;15.82;7.80;;;;;;;4.22;77.55;102379.00;4999147;28;20141;-79
2022/04/27 02:45:18;;;;;;;12.07;7.97;;;;;;;4.23;77.04;102386.06;5032106;28;20453;-79
2022/04/27 02:47:43;;;;;;;13.90;7.90;;;;;;;4.24;77.36;102382.56;4998858;28;20049;-79
2022/04/27 02:52:56;;;;;;;14.57;8.05;;;;;;;4.21;76.83;102392.97;5031329;28;20037;-79
2022/04/27 02:55:29;;;;;;;10.30;7.53;;;;;;;4.20;77.45;102394.69;5020304;28;20125;-79
2022/04/27 02:57:56;;;;;;;14.73;8.55;;;;;;;4.19;78.07;102387.69;4998599;28;20057;-79
2022/04/27 03:00:26;;;;;;;12.13;8.02;;;;;;;4.17;78.05;102389.38;4999047;28;20031;-79
2022/04/27 03:02:53;;;;;;;11.82;7.40;;;;;;;4.14;76.06;102388.41;5015040;28;20026;-79
2022/04/27 03:05:21;;;;;;;12.98;7.80;;;;;;;4.09;76.44;102393.50;5032786;28;20029;-79
2022/04/27 03:07:47;;;;;;;11.77;7.25;;;;;;;4.03;75.45;102388.97;4998433;28;20048;-79
2022/04/27 03:10:12;;;;;;;10.88;6.50;;;;;;;4.00;75.11;102388.84;5014813;28;20095;-79
2022/04/27 03:12:41;;;;;;;11.38;7.75;;;;;;;4.00;76.29;102393.22;4998561;28;20436;-79
2022/04/27 03:15:08;;;;;;;13.25;8.23;;;;;;;3.94;78.32;102386.06;4998699;28;20021;-79
2022/04/27 03:17:34;;;;;;;10.73;8.00;;;;;;;3.91;78.06;102383.38;5014757;28;20124;-79
2022/04/27 03:20:00;;;;;;;9.05;7.07;;;;;;;3.91;77.54;102392.94;5014727;28;20035;-79
2022/04/27 03:22:27;;;;;;;12.88;7.43;;;;;;;3.87;78.37;102391.97;5014304;28;20038;-79
2022/04/27 03:24:53;;;;;;;12.48;8.00;;;;;;;3.83;79.36;102396.22;5012379;28;20112;-79
2022/04/27 03:27:24;;;;;;;13.27;8.80;;;;;;;3.80;79.34;102396.13;5014255;28;20045;-79
2022/04/27 03:29:50;;;;;;;14.45;8.25;;;;;;;3.78;79.01;102400.41;5030985;28;20048;-79
2022/04/27 03:32:16;;;;;;;12.82;8.48;;;;;;;3.75;79.74;102399.44;4997927;28;20188;-79
2022/04/27 03:34:48;;;;;;;22.17;8.88;;;;;;;3.71;79.11;102398.47;4983910;28;20048;-79
2022/04/27 03:37:14;;;;;;;11.55;7.75;;;;;;;3.65;78.01;102393.03;4997800;28;20041;-79
2022/04/27 03:39:39;;;;;;;11.60;8.68;;;;;;;3.63;77.42;102405.19;4997885;28;20123;-79
2022/04/27 03:42:07;;;;;;;13.55;8.95;;;;;;;3.60;77.71;102399.84;5014429;28;20033;-79
2022/04/27 03:44:33;;;;;;;10.15;7.82;;;;;;;3.59;79.06;102405.94;4981734;28;20030;-79
2022/04/27 03:47:00;;;;;;;11.20;8.35;;;;;;;3.53;78.74;102403.13;4982176;28;20045;-79
2022/04/27 03:49:27;;;;;;;11.93;8.55;;;;;;;3.49;79.22;102407.38;5009527;28;20409;-79
2022/04/27 03:51:52;;;;;;;16.83;8.85;;;;;;;3.49;78.82;102411.69;4992637;28;20052;-79
2022/04/27 03:54:18;;;;;;;14.60;8.80;;;;;;;3.48;78.95;102413.44;4992305;28;20140;-79
2022/04/27 03:56:44;;;;;;;9.75;7.65;;;;;;;3.43;77.74;102410.66;5009627;28;20056;-79
2022/04/27 03:59:11;;;;;;;15.02;8.63;;;;;;;3.42;77.87;102413.25;4961163;28;20057;-79
2022/04/27 04:01:37;;;;;;;11.48;8.15;;;;;;;3.41;77.82;102414.06;4990021;28;20324;-79
2022/04/27 04:04:04;;;;;;;13.23;8.73;;;;;;;3.37;78.06;102413.09;4989920;28;20030;-79
2022/04/27 04:06:29;;;;;;;14.27;8.40;;;;;;;3.36;78.70;102419.19;4973858;28;20153;-79
2022/04/27 04:08:55;;;;;;;12.82;8.82;;;;;;;3.42;79.66;102427.22;4957608;28;20462;-80
2022/04/27 04:11:20;;;;;;;12.95;9.18;;;;;;;3.42;79.69;102426.34;4973726;28;20049;-80
2022/04/27 04:14:04;;;;;;;15.93;9.40;;;;;;;3.41;80.36;102427.16;5003595;28;20040;-80
2022/04/27 04:16:50;;;;;;;17.05;10.45;;;;;;;3.38;80.32;102430.56;4995175;28;20449;-79
2022/04/27 04:19:26;;;;;;;16.08;9.30;;;;;;;3.37;79.29;102430.53;4996398;28;20113;-79
2022/04/27 04:22:08;;;;;;;12.40;8.55;;;;;;;3.30;80.32;102426.81;5033898;28;20049;-79
2022/04/27 04:30:30;;;;;;;13.77;9.82;;;;;;;3.25;80.31;102433.63;5006038;28;20033;-79
2022/04/27 04:33:28;;;;;;;13.52;9.13;;;;;;;3.23;80.02;102441.44;5029031;28;20496;-79
2022/04/27 04:35:57;;;;;;;15.30;9.30;;;;;;;3.21;80.24;102447.44;5001148;28;20456;-79
2022/04/27 04:38:23;;;;;;;14.70;9.70;;;;;;;3.20;79.96;102449.19;5033153;28;20469;-79
2022/04/27 04:40:53;;;;;;;13.35;9.32;;;;;;;3.20;80.09;102451.81;5033112;28;20033;-79
2022/04/27 04:43:19;;;;;;;14.15;9.45;;;;;;;3.23;80.15;102458.88;5016676;28;20041;-79
2022/04/27 04:45:46;;;;;;;15.80;10.18;;;;;;;3.25;80.21;102457.19;5033419;28;20056;-79
2022/04/27 04:48:42;;;;;;;14.38;9.57;;;;;;;3.29;80.98;102466.03;5020870;28;20037;-79
2022/04/27 04:51:40;;;;;;;16.52;10.85;;;;;;;3.28;81.86;102465.16;5015724;28;20057;-79
2022/04/27 04:54:38;;;;;;;22.42;9.70;;;;;;;3.27;81.99;102452.91;5001278;28;20049;-79
2022/04/27 04:57:13;;;;;;;15.23;10.00;;;;;;;3.26;81.72;102466.81;5029547;28;20037;-79
2022/04/27 04:59:44;;;;;;;;;;;;;;;3.34;78.97;102464.47;5014669;28;20045;-79
2022/04/27 05:02:19;;;;;;;16.73;9.50;;;;;;;3.28;80.63;102470.38;5011211;28;19924;-79
2022/04/27 05:05:13;;;;;;;14.20;9.43;;;;;;;3.32;81.52;102481.88;5004965;28;20453;-79
2022/04/27 05:08:06;;;;;;;12.27;9.32;;;;;;;3.36;81.21;102473.25;5017199;28;20042;-79
2022/04/27 05:11:04;;;;;;;12.57;9.25;;;;;;;3.39;81.55;102479.50;5033978;28;20099;-80
2022/04/27 05:13:53;;;;;;;18.58;11.02;;;;;;;3.44;82.24;102485.78;4992241;28;20057;-79
2022/04/27 05:16:53;;;;;;;15.07;10.07;;;;;;;3.51;81.78;102486.91;5029777;28;20041;-79
2022/04/27 05:19:24;;;;;;;15.27;10.40;;;;;;;3.57;82.01;102481.84;5005465;28;20036;-79
2022/04/27 05:22:16;;;;;;;18.27;10.88;;;;;;;3.65;82.09;102489.97;5051397;28;20044;-79
2022/04/27 05:24:49;;;;;;;16.25;11.00;;;;;;;3.70;82.14;102492.75;5005846;28;20136;-80
2022/04/27 05:27:28;;;;;;;16.52;10.82;;;;;;;3.80;81.92;102497.44;5036790;28;20032;-80
2022/04/27 05:33:31;;;;;;;16.55;10.07;;;;;;;4.02;82.06;102502.50;5043349;28;20106;-79
2022/04/27 05:35:59;;;;;;;17.50;10.57;;;;;;;4.12;82.44;102498.47;5037225;28;20060;-79
2022/04/27 05:39:03;;;;;;;16.13;10.63;;;;;;;4.25;82.58;102511.13;4981440;28;20034;-79
2022/04/27 05:41:38;;;;;;;20.73;11.02;;;;;;;4.35;82.30;102507.03;4977762;28;20049;-79
2022/04/27 05:44:12;;;;;;;18.60;11.02;;;;;;;4.45;82.71;102509.09;5020713;28;20413;-78
2022/04/27 05:46:56;;;;;;;18.38;11.15;;;;;;;4.56;82.42;102516.41;5039661;28;20397;-78
2022/04/27 05:49:42;;;;;;;14.73;10.57;;;;;;;4.66;82.50;102514.09;5038709;28;20087;-78
2022/04/27 05:52:49;;;;;;;15.20;10.40;;;;;;;4.78;81.14;102523.19;5049038;28;20045;-79
2022/04/27 05:55:43;;;;;;;13.70;9.95;;;;;;;4.90;81.41;102524.41;5047664;28;20107;-79
2022/04/27 05:58:28;;;;;;;18.17;9.70;;;;;;;5.02;81.52;102518.63;5039611;28;20127;-79
2022/04/27 06:01:09;;;;;;;13.77;9.27;;;;;;;5.12;82.08;102520.66;5032689;28;20030;-80
2022/04/27 06:03:47;;;;;;;14.43;10.35;;;;;;;5.24;81.86;102519.19;5001677;28;20037;-80
2022/04/27 06:06:12;;;;;;;16.38;9.57;;;;;;;5.35;81.24;102517.75;5016271;28;20405;-80
2022/04/27 06:08:38;;;;;;;15.27;10.30;;;;;;;5.43;81.13;102517.94;5016014;28;20061;-80
2022/04/27 06:11:08;;;;;;;14.85;9.15;;;;;;;5.54;80.85;102525.28;5000182;28;20045;-80
2022/04/27 06:13:53;;;;;;;15.02;9.32;;;;;;;5.68;80.17;102528.22;5011241;28;20049;-80
2022/04/27 06:16:33;;;;;;;12.90;8.73;;;;;;;5.79;79.55;102525.88;5017476;28;20410;-80
2022/04/27 06:19:05;;;;;;;14.38;8.85;;;;;;;5.91;79.44;102538.44;5016106;28;20136;-80
2022/04/27 06:21:32;;;;;;;13.05;8.20;;;;;;;6.01;79.13;102548.38;5000010;28;20033;-80
2022/04/27 06:24:04;;;;;;;12.05;9.10;;;;;;;6.10;78.84;102539.81;5022099;28;20056;-80
2022/04/27 06:26:33;;;;;;;17.52;8.50;;;;;;;6.18;78.32;102539.16;5015854;28;20499;-80
2022/04/27 06:29:00;;;;;;;13.80;8.73;;;;;;;6.30;78.20;102551.66;4999335;28;20116;-80
2022/04/27 06:31:26;;;;;;;16.75;8.95;;;;;;;6.42;77.78;102551.06;4955786;28;20047;-80
2022/04/27 06:33:55;;;;;;;14.95;7.85;;;;;;;6.51;77.23;102550.41;4956560;28;20042;-80
2022/04/27 06:36:21;;;;;;;10.82;8.05;;;;;;;6.63;76.32;102546.28;4972082;28;20137;-80
2022/04/27 06:38:47;;;;;;;12.65;7.55;;;;;;;6.74;76.88;102545.63;4956073;28;20548;-80
2022/04/27 06:41:20;;;;;;;19.52;9.52;;;;;;;6.86;76.15;102548.53;4956136;28;20501;-80
2022/04/27 06:44:06;;;;;;;17.90;7.93;;;;;;;6.98;75.11;102550.53;4971954;28;20050;-80
2022/04/27 06:46:50;;;;;;;12.07;7.75;;;;;;;7.07;75.32;102548.06;4972481;28;20085;-80
2022/04/27 06:49:34;;;;;;;13.25;7.30;;;;;;;7.22;73.50;102550.09;4972006;28;20070;-81
2022/04/27 06:52:18;;;;;;;19.42;8.18;;;;;;;7.34;74.17;102552.97;4971884;28;20049;-81
2022/04/27 06:55:09;;;;;;;13.45;7.65;;;;;;;7.44;73.48;102552.31;4958199;28;20066;-81
2022/04/27 06:57:53;;;;;;;13.85;8.45;;;;;;;7.54;73.16;102561.25;4986280;28;20081;-80
2022/04/27 07:00:20;;;;;;;17.85;7.70;;;;;;;7.65;71.83;102551.78;4973399;28;20465;-81
2022/04/27 07:02:45;;;;;;;12.48;7.60;;;;;;;7.81;71.79;102562.59;5009806;28;20041;-81
2022/04/27 07:05:17;;;;;;;15.65;7.38;;;;;;;7.91;71.86;102553.97;5010616;28;20418;-81
2022/04/27 07:07:47;;;;;;;14.27;6.90;;;;;;;8.00;70.94;102555.91;4994359;28;20449;-81
2022/04/27 07:10:14;;;;;;;14.40;6.68;;;;;;;8.08;71.17;102555.13;4994057;28;20050;-81
2022/04/27 07:12:42;;;;;;;14.88;7.20;;;;;;;8.22;70.76;102559.78;4994071;28;20033;-82
2022/04/27 07:15:08;;;;;;;11.63;6.68;;;;;;;8.36;70.21;102559.09;4994601;28;20053;-81
2022/04/27 07:17:34;;;;;;;12.00;6.32;;;;;;;8.50;69.32;102563.72;4994174;28;20053;-81
2022/04/27 07:19:59;;;;;;;13.50;6.82;;;;;;;8.64;69.54;102564.81;4977864;28;20046;-81
2022/04/27 07:22:25;;;;;;;14.60;6.53;;;;;;;8.77;68.92;102571.13;5010370;28;20072;-81
2022/04/27 07:24:50;;;;;;;9.27;6.20;;;;;;;8.86;67.96;102566.00;4974164;28;20038;-82
2022/04/27 07:27:17;;;;;;;9.82;5.63;;;;;;;8.90;65.42;102573.09;4958187;28;20077;-82
2022/04/27 07:29:45;;;;;;;10.40;4.85;;;;;;;9.01;65.97;102567.94;4990640;28;20038;-82
2022/04/27 07:32:13;;;;;;;11.43;5.70;;;;;;;9.13;64.60;102575.13;4974595;28;20050;-82
2022/04/27 07:34:38;;;;;;;10.13;5.22;;;;;;;9.23;65.08;102563.78;4974387;28;20045;-82
2022/04/27 07:37:05;;;;;;;12.48;4.40;;;;;;;9.33;63.34;102578.88;5011781;28;20041;-82
2022/04/27 07:39:31;;;;;;;12.98;5.25;;;;;;;9.46;63.05;102575.50;5014562;28;20030;-82
2022/04/27 07:41:59;;;;;;;8.38;4.55;;;;;;;9.62;63.28;102583.59;4998137;28;20390;-82
2022/04/27 07:44:24;;;;;;;10.07;4.10;;;;;;;9.74;61.38;102573.09;5014009;28;20034;-82
2022/04/27 07:46:51;;;;;;;10.55;4.60;;;;;;;9.86;60.40;102577.63;4998030;28;20504;-81
2022/04/27 07:49:20;;;;;;;6.18;3.92;;;;;;;9.98;59.73;102585.69;4981905;28;20057;-81
2022/04/27 07:51:52;;;;;;;7.22;4.00;;;;;;;10.08;58.71;102582.22;5014375;28;20042;-81
2022/04/27 07:54:18;;;;;;;8.32;4.03;;;;;;;10.20;58.42;102581.44;4997973;28;20588;-81
2022/04/27 07:56:44;;;;;;;14.27;4.50;;;;;;;10.30;57.92;102585.97;5022768;28;20029;-81
2022/04/27 07:59:12;;;;;;;8.30;4.10;;;;;;;10.36;57.44;102585.16;5033522;28;20075;-81
2022/04/27 08:01:38;;;;;;;10.18;4.70;;;;;;;10.46;57.43;102586.97;5005172;28;20108;-82
2022/04/27 08:04:03;;;;;;;9.48;4.13;;;;;;;10.54;56.54;102597.63;4997821;28;20044;-82
2022/04/27 08:06:29;;;;;;;12.00;4.10;;;;;;;10.56;56.13;102593.22;5013891;28;20060;-82
2022/04/27 08:08:54;;;;;;;7.13;4.03;;;;;;;10.61;55.62;102599.44;4997659;28;20068;-82
2022/04/27 08:11:22;;;;;;;7.10;3.70;;;;;;;10.68;53.97;102592.38;4997612;28;20030;-82
2022/04/27 08:13:47;;;;;;;11.95;3.78;;;;;;;10.75;55.18;102605.66;5026200;28;20408;-82
2022/04/27 08:16:13;;;;;;;8.50;3.25;;;;;;;10.84;52.64;102594.25;5033614;28;20079;-82
2022/04/27 08:18:39;;;;;;;7.03;3.33;;;;;;;10.98;52.28;102600.50;5017290;28;20041;-82
2022/04/27 08:21:14;;;;;;;8.35;3.40;;;;;;;11.12;51.71;102597.91;5033571;28;20373;-82
2022/04/27 08:23:45;;;;;;;8.05;3.47;;;;;;;11.20;51.17;102603.22;5042502;28;20037;-82
2022/04/27 08:26:11;;;;;;;6.25;3.88;;;;;;;11.32;51.98;102602.38;4998051;28;20060;-82
2022/04/27 08:28:38;;;;;;;6.28;3.38;;;;;;;11.45;51.73;102601.56;5031157;28;20029;-82
2022/04/27 08:31:04;;;;;;;8.05;4.10;;;;;;;11.55;49.82;102608.66;5013610;28;20163;-82
2022/04/27 08:33:30;;;;;;;8.77;3.40;;;;;;;11.56;49.51;102606.88;4997264;28;20037;-82
2022/04/27 08:35:59;;;;;;;8.73;4.03;;;;;;;11.67;51.05;102604.25;4997491;28;20026;-82
2022/04/27 08:38:27;;;;;;;8.43;4.75;;;;;;;11.70;50.16;102604.28;5013562;28;20381;-82
2022/04/27 08:40:54;;;;;;;7.82;3.75;;;;;;;11.78;50.27;102606.03;5013524;28;20473;-82
2022/04/27 08:43:21;;;;;;;11.07;4.13;;;;;;;11.88;48.86;102601.66;4996830;28;20116;-82
2022/04/27 08:45:47;;;;;;;6.05;4.07;;;;;;;11.99;48.30;102606.97;4997204;28;20041;-82
2022/04/27 08:48:17;;;;;;;9.02;3.92;;;;;;;12.09;48.30;102605.19;4981040;28;20112;-82
2022/04/27 08:50:46;;;;;;;8.65;3.97;;;;;;;12.20;48.10;102606.09;5031019;28;20038;-82
2022/04/27 08:53:12;;;;;;;10.13;4.28;;;;;;;12.33;48.73;102605.19;5013541;28;20026;-82
2022/04/27 08:55:40;;;;;;;8.93;4.50;;;;;;;12.43;48.12;102614.91;5017146;28;20033;-82
2022/04/27 08:58:10;;;;;;;12.05;4.65;;;;;;;12.58;47.03;102613.13;5013526;28;20017;-82
2022/04/27 09:00:35;;;;;;;9.35;4.97;;;;;;;12.62;47.14;102614.91;5028704;28;20045;-83
2022/04/27 09:03:21;;;;;;;8.27;4.18;;;;;;;12.75;49.22;102618.41;5013018;28;20029;-82
2022/04/27 09:05:52;;;;;;;9.70;3.85;;;;;;;12.79;45.69;102621.06;5013391;28;20029;-82
2022/04/27 09:08:17;;;;;;;7.32;3.72;;;;;;;12.96;46.32;102621.03;5029238;28;20033;-83
2022/04/27 09:10:43;;;;;;;9.32;4.15;;;;;;;12.99;45.93;102615.69;4996917;28;20032;-83
2022/04/27 09:13:09;;;;;;;9.45;4.20;;;;;;;12.89;45.48;102614.81;5020321;28;20214;-82
2022/04/27 09:15:34;;;;;;;7.95;4.25;;;;;;;12.64;45.17;102608.69;5050850;28;20422;-82
2022/04/27 09:20:47;;;;;;;10.25;4.80;;;;;;;12.31;46.24;102620.25;5018778;28;20040;-82
2022/04/27 09:23:25;;;;;;;9.70;4.20;;;;;;;12.52;45.62;102615.81;5028714;28;20028;-82
2022/04/27 09:25:53;;;;;;;6.95;4.45;;;;;;;12.75;46.42;102611.31;5029590;28;20044;-83
2022/04/27 09:28:22;;;;;;;10.13;4.43;;;;;;;12.90;45.43;102611.25;4996833;28;20029;-82
2022/04/27 09:30:49;;;;;;;9.93;5.20;;;;;;;13.10;45.38;102613.88;5012667;28;20061;-82
2022/04/27 09:33:32;;;;;;;7.85;4.57;;;;;;;13.34;46.42;102610.22;5012833;28;20424;-82
2022/04/27 09:35:58;;;;;;;8.75;4.65;;;;;;;13.52;44.47;102605.69;5012999;28;20041;-82
2022/04/27 09:38:38;;;;;;;9.18;4.03;;;;;;;13.77;45.29;102604.66;5029458;28;20112;-83
2022/04/27 09:41:04;;;;;;;7.05;3.50;;;;;;;13.95;42.97;102598.31;5030810;28;20033;-83
2022/04/27 09:43:49;;;;;;;10.25;3.78;;;;;;;14.16;44.50;102615.00;4980457;28;20187;-83
2022/04/27 09:46:15;;;;;;;15.00;4.38;;;;;;;14.36;42.06;102612.16;5031105;28;20133;-83
2022/04/27 09:48:41;;;;;;;9.02;4.47;;;;;;;14.56;41.75;102612.91;5012709;28;20434;-83
2022/04/27 09:51:13;;;;;;;7.57;4.45;;;;;;;14.61;40.31;102611.09;5016121;28;20057;-83
2022/04/27 09:53:42;;;;;;;7.10;4.07;;;;;;;14.68;40.32;102614.53;5034201;28;20369;-83
2022/04/27 09:56:11;;;;;;;8.23;4.50;;;;;;;14.80;40.70;102610.88;5020532;28;20021;-83
2022/04/27 09:58:43;;;;;;;15.73;4.40;;;;;;;14.90;39.58;102611.66;5053928;28;20040;-83
2022/04/27 10:01:11;;;;;;;7.60;4.07;;;;;;;14.85;39.08;102614.34;5027569;28;20509;-83
2022/04/27 10:03:39;;;;;;;9.57;4.03;;;;;;;14.82;40.24;102607.28;5034302;28;20033;-83
2022/04/27 10:06:06;;;;;;;8.70;4.60;;;;;;;14.91;38.62;102613.41;4999984;28;20065;-82
2022/04/27 10:08:35;;;;;;;8.43;4.50;;;;;;;14.68;38.44;102617.22;5000025;28;20039;-83
2022/04/27 10:11:00;;;;;;;7.20;4.63;;;;;;;14.73;38.60;102615.38;5016009;28;20121;-83
2022/04/27 10:13:27;;;;;;;7.75;4.68;;;;;;;14.99;39.38;102612.41;5025822;28;20533;-83
2022/04/27 10:15:53;;;;;;;8.25;4.65;;;;;;;15.18;38.84;102609.50;5036273;28;20025;-83
2022/04/27 10:18:20;;;;;;;8.10;4.22;;;;;;;15.36;38.64;102603.06;5019264;28;20036;-83
2022/04/27 10:20:49;;;;;;;11.15;4.63;;;;;;;15.59;38.77;102592.94;5019618;28;20527;-83
2022/04/27 10:23:22;;;;;;;9.82;4.95;;;;;;;15.84;38.37;102595.25;5015309;28;20490;-83
2022/04/27 10:26:09;;;;;;;8.35;4.78;;;;;;;16.08;39.99;102594.84;5015999;28;20041;-83
2022/04/27 10:28:37;;;;;;;9.27;4.78;;;;;;;16.24;38.13;102602.59;4999707;28;20034;-83
2022/04/27 10:31:07;;;;;;;9.77;4.47;;;;;;;16.34;37.06;102585.47;5015561;28;20103;-83
2022/04/27 10:33:49;;;;;;;11.75;4.68;;;;;;;16.43;37.00;102581.78;4983908;28;20397;-84
2022/04/27 10:36:43;;;;;;;9.13;4.85;;;;;;;16.55;38.02;102593.13;5017398;28;20033;-83
2022/04/27 10:39:11;;;;;;;13.48;5.20;;;;;;;16.35;37.20;102592.63;5032004;28;20505;-83
2022/04/27 10:41:57;;;;;;;10.65;4.78;;;;;;;16.34;38.26;102580.13;5015503;28;20112;-83
2022/04/27 10:44:50;;;;;;;8.52;5.10;;;;;;;16.00;38.52;102593.19;5015303;28;20052;-83
2022/04/27 10:47:20;;;;;;;11.75;5.28;;;;;;;15.72;38.94;102587.44;5031974;28;20025;-83
2022/04/27 10:49:48;;;;;;;11.20;5.35;;;;;;;15.68;38.38;102595.47;5015569;28;20072;-83
2022/04/27 10:52:14;;;;;;;10.02;5.60;;;;;;;15.62;39.06;102587.53;5015409;28;20461;-83
2022/04/27 10:54:40;;;;;;;10.73;5.63;;;;;;;15.73;38.93;102587.41;5001712;28;20045;-83
2022/04/27 10:57:15;;;;;;;9.68;5.47;;;;;;;15.57;38.71;102584.06;5024973;28;20111;-83
2022/04/27 10:59:49;;;;;;;6.65;4.18;;;;;;;15.53;41.31;102589.44;5035014;28;20037;-83
2022/04/27 11:02:34;;;;;;;9.93;5.63;;;;;;;15.61;39.85;102587.56;4999742;28;20042;-83
2022/04/27 11:05:04;;;;;;;15.30;5.25;;;;;;;15.86;39.28;102585.44;4966974;28;20045;-84
2022/04/27 11:07:44;;;;;;;10.80;5.30;;;;;;;16.20;37.78;102583.06;5014818;28;20033;-83
2022/04/27 11:10:16;;;;;;;12.82;5.40;;;;;;;16.49;38.37;102592.34;5015049;28;20044;-84
2022/04/27 11:12:46;;;;;;;9.70;6.13;;;;;;;16.53;36.81;102586.91;5019197;28;20056;-84
2022/04/27 11:15:16;;;;;;;11.88;5.78;;;;;;;16.38;36.33;102581.84;5018404;28;20060;-83
2022/04/27 11:17:42;;;;;;;9.73;5.00;;;;;;;16.13;37.57;102584.09;5034701;28;20029;-83
2022/04/27 11:20:28;;;;;;;14.20;5.55;;;;;;;15.85;37.90;102583.66;5001970;28;20473;-83
2022/04/27 11:22:55;;;;;;;9.55;5.00;;;;;;;15.83;38.65;102583.69;5033255;28;20091;-83
2022/04/27 11:25:42;;;;;;;9.77;5.18;;;;;;;15.98;39.93;102585.22;4998793;28;20032;-83
2022/04/27 11:28:08;;;;;;;8.82;5.03;;;;;;;16.31;38.87;102580.19;5014514;28;20096;-84
2022/04/27 11:30:34;;;;;;;10.70;5.10;;;;;;;16.94;37.37;102587.94;4998691;28;20473;-84
2022/04/27 11:33:01;;;;;;;9.93;5.03;;;;;;;17.59;38.84;102583.84;4997955;28;20515;-84
2022/04/27 11:35:38;;;;;;;13.63;5.45;;;;;;;17.95;37.10;102589.25;5014778;28;20043;-84
2022/04/27 11:38:04;;;;;;;8.70;4.97;;;;;;;18.05;35.35;102582.72;5014294;28;20470;-84
2022/04/27 11:40:37;;;;;;;9.38;4.97;;;;;;;18.33;36.69;102580.22;5014619;28;20029;-84
2022/04/27 11:43:04;;;;;;;7.47;5.35;;;;;;;18.77;35.74;102583.50;5014428;28;20037;-84
2022/04/27 11:45:30;;;;;;;9.00;4.95;;;;;;;19.08;33.68;102587.97;5014962;28;20091;-84
2022/04/27 11:47:57;;;;;;;10.23;5.47;;;;;;;19.25;35.55;102587.47;4997980;28;20037;-84
2022/04/27 11:50:27;;;;;;;8.65;5.30;;;;;;;19.64;34.75;102574.59;5014307;28;20029;-84
2022/04/27 11:53:01;;;;;;;9.32;5.35;;;;;;;20.00;33.45;102566.25;5014223;28;20056;-84
2022/04/27 11:55:26;;;;;;;8.00;4.78;;;;;;;20.31;32.20;102574.16;5025912;28;20026;-85
2022/04/27 11:57:52;;;;;;;7.53;4.57;;;;;;;20.52;33.06;102572.50;5013662;28;20119;-85